Time;durP1;ratioP1;P1;durP2;ratioP2;P2;SDS_P1;SDS_P2;PMS_P1;PMS_P2;Temp;Humidity;BMP_temperature;BMP_pressure;BME280_temperature;BME280_humidity;BME280_pressure;Samples;Min_cycle;Max_cycle;Signal;HPM_P1;HPM_P2
2021/10/03 00:01:59;;;;;;;;;2.00;2.00;;;;;22.31;50.60;99240.97;5021501;28;51260;-60
2021/10/03 00:04:27;;;;;;;;;1.00;1.00;;;;;22.31;50.89;99240.16;5023129;28;51996;-61
2021/10/03 00:06:53;;;;;;;;;2.25;2.25;;;;;22.30;50.69;99239.34;5018936;28;51260;-61
2021/10/03 00:09:21;;;;;;;;;2.00;2.00;;;;;22.30;50.93;99242.09;5017039;28;51387;-61
2021/10/03 00:11:48;;;;;;;;;2.00;2.00;;;;;22.30;50.46;99233.81;5024009;28;51617;-61
2021/10/03 00:14:13;;;;;;;;;2.00;2.00;;;;;22.29;50.70;99223.84;5018274;28;51106;-61
2021/10/03 00:16:42;;;;;;;;;2.00;2.00;;;;;22.29;50.90;99229.38;5017781;28;51169;-60
2021/10/03 00:19:08;;;;;;;;;2.00;2.00;;;;;22.30;50.74;99225.53;5028161;28;51450;-61
2021/10/03 00:21:33;;;;;;;;;2.50;2.50;;;;;22.29;50.28;99228.53;5026199;28;51270;-60
2021/10/03 00:23:58;;;;;;;;;1.25;1.25;;;;;22.29;50.62;99220.25;5023478;28;50917;-61
2021/10/03 00:26:24;;;;;;;;;3.00;2.00;;;;;22.29;50.50;99223.03;5023198;28;51196;-61
2021/10/03 00:28:49;;;;;;;;;1.00;1.00;;;;;22.28;50.28;99213.94;5029529;28;50970;-61
2021/10/03 00:31:15;;;;;;;;;2.75;2.00;;;;;22.28;50.23;99213.94;5028397;28;51138;-61
2021/10/03 00:33:40;;;;;;;;;1.50;1.50;;;;;22.27;50.59;99211.44;5017114;28;51148;-61
2021/10/03 00:36:06;;;;;;;;;1.25;1.25;;;;;22.27;50.79;99203.16;5023343;28;51198;-61
2021/10/03 00:38:31;;;;;;;;;2.00;2.00;;;;;22.26;50.21;99207.84;5029803;28;51070;-61
2021/10/03 00:40:57;;;;;;;;;2.00;2.00;;;;;22.25;50.50;99211.72;5025815;28;51065;-61
2021/10/03 00:43:22;;;;;;;;;3.00;2.25;;;;;22.25;50.15;99203.44;5031664;28;51683;-61
2021/10/03 00:45:48;;;;;;;;;2.75;1.25;;;;;22.25;50.72;99197.94;5022893;28;51147;-61
2021/10/03 00:48:13;;;;;;;;;1.50;1.50;;;;;22.24;50.67;99190.75;5031761;28;51382;-61
2021/10/03 00:50:41;;;;;;;;;1.25;1.00;;;;;22.24;50.14;99189.94;5023934;28;51131;-60
2021/10/03 00:53:08;;;;;;;;;2.00;2.00;;;;;22.24;50.45;99189.94;5023840;28;51859;-60
2021/10/03 00:55:34;;;;;;;;;1.00;1.00;;;;;22.23;50.65;99186.34;5026474;28;51100;-60
2021/10/03 00:58:00;;;;;;;;;3.00;3.00;;;;;22.24;50.31;99178.91;5028291;28;51237;-60
2021/10/03 01:00:28;;;;;;;;;1.50;1.50;;;;;22.23;50.56;99182.75;5028791;28;51240;-60
2021/10/03 01:02:56;;;;;;;;;3.25;2.25;;;;;22.22;50.04;99187.44;5019599;28;51003;-60
2021/10/03 01:05:22;;;;;;;;;1.00;1.00;;;;;22.21;50.34;99185.81;5025039;28;51462;-60
2021/10/03 01:07:47;;;;;;;;;0.75;0.75;;;;;22.22;50.43;99179.19;5018246;28;51040;-60
2021/10/03 01:10:19;;;;;;;;;1.00;1.00;;;;;22.21;50.65;99166.50;5030002;28;51294;-60
2021/10/03 01:12:45;;;;;;;;;4.00;3.00;;;;;22.21;50.44;99172.00;5031597;28;51711;-60
2021/10/03 01:15:12;;;;;;;;;2.00;2.00;;;;;22.21;50.16;99160.97;5021282;28;51288;-60
2021/10/03 01:17:38;;;;;;;;;2.50;1.75;;;;;22.21;50.27;99158.22;5023772;28;51116;-61
2021/10/03 01:20:06;;;;;;;;;2.25;2.25;;;;;22.20;50.00;99151.06;5022735;28;51326;-61
2021/10/03 01:22:31;;;;;;;;;2.00;1.00;;;;;22.21;50.44;99144.44;5024716;28;51894;-60
2021/10/03 01:24:58;;;;;;;;;3.75;3.00;;;;;22.20;50.20;99137.25;5026903;28;51085;-61
2021/10/03 01:27:25;;;;;;;;;2.50;1.00;;;;;22.21;50.41;99144.44;5038132;28;51205;-61
2021/10/03 01:29:51;;;;;;;;;4.00;2.00;;;;;22.20;50.60;99140.03;5031049;28;51397;-61
2021/10/03 01:32:18;;;;;;;;;3.00;3.00;;;;;22.21;50.16;99140.84;5026073;28;50945;-61
2021/10/03 01:34:44;;;;;;;;;2.00;1.00;;;;;22.21;50.34;99138.09;5015886;28;52068;-61
2021/10/03 01:37:10;;;;;;;;;1.00;1.00;;;;;22.20;50.09;99126.22;5025179;28;51329;-61
2021/10/03 01:39:36;;;;;;;;;2.00;2.00;;;;;22.19;50.72;99130.88;5025008;28;51239;-61
2021/10/03 01:42:01;;;;;;;;;2.50;2.00;;;;;22.18;50.20;99123.72;5020243;28;51250;-61
2021/10/03 01:44:27;;;;;;;;;1.25;1.25;;;;;22.19;50.54;99117.09;5032812;28;51147;-61
2021/10/03 01:46:52;;;;;;;;;2.00;2.00;;;;;22.18;50.29;99109.09;5021704;28;51067;-61
2021/10/03 01:49:18;;;;;;;;;2.00;2.00;;;;;22.19;50.68;99113.50;5032949;28;51163;-61
2021/10/03 01:51:43;;;;;;;;;2.25;1.25;;;;;22.19;50.56;99108.00;5027151;28;51694;-61
2021/10/03 01:54:08;;;;;;;;;2.75;1.00;;;;;22.18;50.08;99103.59;5027016;28;51129;-60
2021/10/03 01:56:36;;;;;;;;;3.75;2.25;;;;;22.18;50.63;99098.91;5028421;28;51210;-61
2021/10/03 01:59:04;;;;;;;;;2.75;2.75;;;;;22.17;50.23;99104.69;5022757;28;51336;-61
2021/10/03 02:01:43;;;;;;;;;3.00;2.00;;;;;22.18;50.53;99100.84;5019826;28;51629;-61
2021/10/03 02:04:27;;;;;;;;;4.00;1.00;;;;;22.17;50.21;99096.41;5025611;28;51244;-61
2021/10/03 02:06:57;;;;;;;;;1.25;1.25;;;;;22.16;50.20;99086.50;5025040;28;51491;-61
2021/10/03 02:09:25;;;;;;;;;1.50;1.50;;;;;22.17;50.09;99082.63;5020689;28;51093;-61
2021/10/03 02:11:56;;;;;;;;;3.50;2.00;;;;;22.15;50.41;99063.59;5023254;28;52057;-61
2021/10/03 02:14:27;;;;;;;;;3.00;1.25;;;;;22.15;50.10;99065.53;5032435;28;51497;-61
2021/10/03 02:16:55;;;;;;;;;3.00;2.75;;;;;22.15;50.67;99065.53;5015955;28;51242;-60
2021/10/03 02:19:22;;;;;;;;;2.25;1.00;;;;;22.14;50.19;99050.94;5031226;28;51245;-60
2021/10/03 02:21:48;;;;;;;;;1.75;1.25;;;;;22.15;50.20;99040.72;5025858;28;52085;-60
2021/10/03 02:24:15;;;;;;;;;2.00;2.00;;;;;22.15;50.46;99043.47;5021264;28;51113;-61
2021/10/03 02:26:41;;;;;;;;;2.00;2.00;;;;;22.15;50.08;99037.97;5026290;28;51258;-61
2021/10/03 02:29:07;;;;;;;;;1.75;1.00;;;;;22.14;50.72;99025.28;5036392;28;51278;-61
2021/10/03 02:31:32;;;;;;;;;2.00;1.50;;;;;22.14;50.16;99039.91;5030285;28;51644;-61
2021/10/03 02:33:58;;;;;;;;;1.25;1.25;;;;;22.15;50.72;99029.69;5021200;28;52209;-61
2021/10/03 02:36:23;;;;;;;;;1.50;1.50;;;;;22.14;50.37;99030.78;5031951;28;51128;-61
2021/10/03 02:38:50;;;;;;;;;1.25;1.25;;;;;22.14;50.50;99034.38;5025855;28;51395;-61
2021/10/03 02:41:18;;;;;;;;;3.00;1.00;;;;;22.13;50.41;99013.44;5024297;28;51108;-61
2021/10/03 02:43:46;;;;;;;;;3.00;1.00;;;;;22.14;50.39;99020.59;5033074;28;51264;-61
2021/10/03 02:46:12;;;;;;;;;2.00;2.00;;;;;22.14;50.71;99015.06;5022665;28;51061;-61
2021/10/03 02:48:39;;;;;;;;;2.50;2.00;;;;;22.15;50.09;99015.91;5037541;28;51310;-61
2021/10/03 02:51:05;;;;;;;;;1.25;1.25;;;;;22.13;50.28;99001.56;5038007;28;51115;-61
2021/10/03 02:53:30;;;;;;;;;3.75;2.00;;;;;22.13;50.20;99007.09;5036037;28;51414;-61
2021/10/03 02:55:56;;;;;;;;;2.00;2.00;;;;;22.13;50.48;98996.06;5020113;28;51088;-61
2021/10/03 02:58:22;;;;;;;;;2.25;1.50;;;;;22.12;50.66;98992.47;5018468;28;50962;-61
2021/10/03 03:00:51;;;;;;;;;2.00;2.00;;;;;22.11;50.64;98990.81;5017858;28;51905;-60
2021/10/03 03:03:17;;;;;;;;;1.00;1.00;;;;;22.12;50.32;98989.72;5018368;28;51171;-61
2021/10/03 03:05:42;;;;;;;;;2.50;2.00;;;;;22.13;50.74;98988.59;5033416;28;51136;-61
2021/10/03 03:08:08;;;;;;;;;1.00;1.00;;;;;22.13;50.53;98980.34;5038253;28;51159;-61
2021/10/03 03:10:34;;;;;;;;;3.00;2.75;;;;;22.12;50.50;98988.88;5037770;28;52676;-61
2021/10/03 03:13:00;;;;;;;;;2.25;1.00;;;;;22.12;50.57;98991.66;5038051;28;51235;-61
2021/10/03 03:15:25;;;;;;;;;1.50;1.50;;;;;22.11;50.01;98990.00;5038076;28;51024;-61
2021/10/03 03:17:51;;;;;;;;;1.00;1.00;;;;;22.11;50.66;98982.53;5019730;28;51180;-61
2021/10/03 03:20:17;;;;;;;;;5.00;2.75;;;;;22.10;50.50;98969.03;5017878;28;50955;-61
2021/10/03 03:22:42;;;;;;;;;2.75;2.25;;;;;22.11;50.05;98970.69;5018060;28;50954;-61
2021/10/03 03:25:10;;;;;;;;;2.00;2.00;;;;;22.10;50.36;98969.03;5031178;28;51334;-60
2021/10/03 03:27:36;;;;;;;;;2.25;2.25;;;;;22.10;50.13;98958.00;5048825;28;51190;-61
2021/10/03 03:30:05;;;;;;;;;2.00;2.00;;;;;22.10;49.98;98963.53;5057553;28;51124;-61
2021/10/03 03:32:31;;;;;;;;;1.75;1.00;;;;;22.10;50.23;98952.50;5057681;28;50968;-61
2021/10/03 03:34:56;;;;;;;;;2.00;1.50;;;;;22.10;50.20;98958.00;5035783;28;51750;-61
2021/10/03 03:37:21;;;;;;;;;2.75;1.75;;;;;22.10;50.19;98944.22;5037101;28;50946;-61
2021/10/03 03:39:47;;;;;;;;;2.00;2.00;;;;;22.10;50.15;98941.47;5037312;28;51001;-61
2021/10/03 03:42:12;;;;;;;;;4.00;2.75;;;;;22.10;50.50;98950.56;5036610;28;51004;-61
2021/10/03 03:44:37;;;;;;;;;2.00;2.00;;;;;22.10;50.04;98942.28;5036337;28;50997;-61
2021/10/03 03:47:03;;;;;;;;;1.50;1.00;;;;;22.10;50.42;98950.56;5037965;28;51055;-61
2021/10/03 03:49:29;;;;;;;;;1.00;0.50;;;;;22.10;50.60;98949.75;5020328;28;52004;-61
2021/10/03 03:51:54;;;;;;;;;1.75;1.75;;;;;22.10;50.45;98952.50;5017691;28;51094;-61
2021/10/03 03:54:19;;;;;;;;;1.75;1.75;;;;;22.09;50.53;98950.81;5029919;28;51512;-61
2021/10/03 03:56:45;;;;;;;;;2.25;2.00;;;;;22.09;50.68;98945.31;5037235;28;51186;-60
2021/10/03 03:59:10;;;;;;;;;2.00;2.00;;;;;22.09;50.54;98951.69;5036759;28;51100;-61
2021/10/03 04:01:36;;;;;;;;;3.00;1.00;;;;;22.09;50.12;98945.31;5032452;28;51267;-61
2021/10/03 04:04:01;;;;;;;;;2.00;2.00;;;;;22.09;50.27;98945.31;5037342;28;51041;-61
2021/10/03 04:06:26;;;;;;;;;3.75;3.75;;;;;22.08;50.53;98952.75;5037417;28;51159;-61
2021/10/03 04:08:52;;;;;;;;;3.00;3.00;;;;;22.08;50.38;98950.00;5036991;28;51169;-61
2021/10/03 04:11:18;;;;;;;;;2.50;2.00;;;;;22.08;50.08;98949.16;5037026;28;51057;-61
2021/10/03 04:13:44;;;;;;;;;2.75;2.75;;;;;22.08;50.52;98952.75;5018897;28;51156;-61
2021/10/03 04:16:10;;;;;;;;;4.00;2.00;;;;;22.07;50.53;98959.38;5017010;28;51306;-60
2021/10/03 04:18:35;;;;;;;;;2.00;2.00;;;;;22.07;50.33;98958.53;5016626;28;51265;-60
2021/10/03 04:21:00;;;;;;;;;3.00;3.00;;;;;22.07;50.72;98953.84;5017000;28;51100;-60
2021/10/03 04:23:26;;;;;;;;;3.00;3.00;;;;;22.08;50.73;98951.94;5022350;28;51113;-60
2021/10/03 04:25:51;;;;;;;;;3.00;2.00;;;;;22.09;50.38;98959.09;5020294;28;51060;-60
2021/10/03 04:28:16;;;;;;;;;2.00;2.00;;;;;22.07;50.36;98959.38;5056731;28;51973;-61
2021/10/03 04:30:42;;;;;;;;;3.00;3.00;;;;;22.08;50.68;98962.94;5056992;28;51127;-60
2021/10/03 04:33:08;;;;;;;;;2.75;1.25;;;;;22.07;50.38;98964.88;5056671;28;50949;-61
2021/10/03 04:35:33;;;;;;;;;1.00;1.00;;;;;22.07;50.07;98966.81;5053314;28;50927;-64
2021/10/03 04:37:58;;;;;;;;;1.25;1.25;;;;;22.07;50.36;98966.81;5025779;28;52798;-60
2021/10/03 04:40:24;;;;;;;;;3.00;2.00;;;;;22.07;50.52;98959.38;5016391;28;50904;-61
2021/10/03 04:42:49;;;;;;;;;2.50;2.50;;;;;22.06;50.12;98962.38;5016896;28;51626;-60
2021/10/03 04:45:16;;;;;;;;;2.00;2.00;;;;;22.07;50.61;98953.03;5017040;28;51152;-60
2021/10/03 04:47:42;;;;;;;;;2.50;1.75;;;;;22.06;50.08;98956.88;5034995;28;51084;-60
2021/10/03 04:50:08;;;;;;;;;3.00;3.00;;;;;22.06;50.68;98952.22;5036472;28;51050;-60
2021/10/03 04:52:34;;;;;;;;;2.00;2.00;;;;;22.05;50.22;98950.53;5036001;28;51200;-60
2021/10/03 04:54:59;;;;;;;;;3.00;2.25;;;;;22.06;50.06;98951.34;5016767;28;51009;-60
2021/10/03 04:57:24;;;;;;;;;3.25;3.25;;;;;22.06;50.72;98949.44;5015837;28;50926;-60
2021/10/03 04:59:50;;;;;;;;;2.75;2.00;;;;;22.06;50.61;98940.31;5028378;28;51085;-60
2021/10/03 05:02:15;;;;;;;;;2.25;2.00;;;;;22.05;50.50;98933.97;5034671;28;51266;-60
2021/10/03 05:04:41;;;;;;;;;2.25;2.00;;;;;22.05;50.10;98939.50;5036399;28;50913;-60
2021/10/03 05:07:06;;;;;;;;;2.00;2.00;;;;;22.06;50.76;98934.81;5034734;28;51906;-60
2021/10/03 05:09:33;;;;;;;;;2.00;2.00;;;;;22.05;50.14;98925.72;5032563;28;51074;-60
2021/10/03 05:11:58;;;;;;;;;2.00;2.00;;;;;22.05;50.34;98952.47;5016243;28;51066;-60
2021/10/03 05:14:24;;;;;;;;;3.75;3.75;;;;;22.03;50.24;98969.28;5016635;28;51209;-61
2021/10/03 05:16:50;;;;;;;;;2.25;2.25;;;;;22.04;50.26;98979.22;5015911;28;51115;-60
2021/10/03 05:19:15;;;;;;;;;2.25;2.25;;;;;22.04;50.57;99004.03;5016169;28;51158;-60
2021/10/03 05:21:40;;;;;;;;;2.00;2.00;;;;;22.04;50.49;98970.94;5020172;28;51028;-60
2021/10/03 05:24:06;;;;;;;;;3.50;2.00;;;;;22.05;50.37;99015.88;5029338;28;51449;-61
2021/10/03 05:26:32;;;;;;;;;1.25;1.25;;;;;22.05;50.86;99011.19;5041714;28;51904;-60
2021/10/03 05:28:57;;;;;;;;;2.75;2.00;;;;;22.06;50.39;98989.94;5044654;28;51082;-60
2021/10/03 05:31:23;;;;;;;;;2.25;2.00;;;;;22.06;50.23;99006.50;5034380;28;51152;-60
2021/10/03 05:33:50;;;;;;;;;2.75;2.75;;;;;22.04;50.56;99026.06;5032764;28;51187;-60
2021/10/03 05:36:15;;;;;;;;;2.50;1.75;;;;;22.04;50.34;99016.97;5032667;28;51121;-60
2021/10/03 05:38:41;;;;;;;;;3.75;2.00;;;;;22.04;50.65;99034.34;5035745;28;51023;-60
2021/10/03 05:41:06;;;;;;;;;2.00;2.00;;;;;22.04;50.80;99037.09;5022890;28;50958;-60
2021/10/03 05:43:32;;;;;;;;;2.25;2.25;;;;;22.04;50.80;99020.56;5014914;28;51304;-60
2021/10/03 05:45:57;;;;;;;;;1.25;1.25;;;;;22.02;50.27;99044.84;5020134;28;51593;-60
2021/10/03 05:48:22;;;;;;;;;2.75;2.75;;;;;22.04;50.61;99069.38;5015502;28;51049;-60
2021/10/03 05:50:48;;;;;;;;;2.00;2.00;;;;;22.04;50.82;99052.81;5015799;28;50997;-60
2021/10/03 05:53:14;;;;;;;;;1.50;1.00;;;;;22.03;50.73;99082.31;5023873;28;50981;-60
2021/10/03 05:55:39;;;;;;;;;2.00;2.00;;;;;22.04;50.48;99072.13;5034684;28;51884;-60
2021/10/03 05:58:05;;;;;;;;;1.25;1.00;;;;;22.03;50.57;99082.31;5030802;28;51065;-61
2021/10/03 06:00:30;;;;;;;;;1.00;1.00;;;;;22.03;50.71;99078.75;5015641;28;51028;-60
2021/10/03 06:02:56;;;;;;;;;1.00;1.00;;;;;22.02;50.44;99091.72;5015521;28;51146;-60
2021/10/03 06:05:21;;;;;;;;;3.00;2.00;;;;;22.03;50.09;99117.34;5022486;28;51796;-60
2021/10/03 06:07:47;;;;;;;;;2.00;2.00;;;;;22.03;50.31;99117.34;5038930;28;51065;-60
2021/10/03 06:10:13;;;;;;;;;0.75;0.50;;;;;22.02;50.76;99111.00;5037827;28;51131;-60
2021/10/03 06:12:38;;;;;;;;;2.00;1.25;;;;;22.03;50.62;99096.13;5020383;28;51208;-60
2021/10/03 06:15:05;;;;;;;;;1.00;1.00;;;;;22.02;50.49;99099.97;5018593;28;51953;-60
2021/10/03 06:17:30;;;;;;;;;1.50;1.25;;;;;22.02;50.10;99101.91;5018928;28;52190;-60
2021/10/03 06:19:56;;;;;;;;;1.00;1.00;;;;;22.01;50.18;99114.88;5019962;28;51205;-60
2021/10/03 06:22:24;;;;;;;;;1.00;1.00;;;;;22.01;50.23;99114.88;5019510;28;51330;-60
2021/10/03 06:24:50;;;;;;;;;1.50;0.00;;;;;22.02;50.11;99129.47;5038502;28;52828;-60
2021/10/03 06:27:15;;;;;;;;;1.00;0.75;;;;;22.01;50.51;99114.88;5044943;28;51385;-61
2021/10/03 06:29:41;;;;;;;;;1.00;1.00;;;;;22.01;50.00;99114.03;5053450;28;51116;-60
2021/10/03 06:32:06;;;;;;;;;0.75;0.75;;;;;22.00;50.62;99112.38;5038769;28;51077;-60
2021/10/03 06:34:32;;;;;;;;;0.25;0.25;;;;;22.01;50.58;99123.13;5026280;28;52000;-61
2021/10/03 06:36:57;;;;;;;;;0.75;0.00;;;;;22.00;50.46;99124.25;5020681;28;51046;-60
2021/10/03 06:39:22;;;;;;;;;0.75;0.75;;;;;22.00;50.41;99117.91;5018817;28;51168;-60
2021/10/03 06:41:48;;;;;;;;;0.00;0.00;;;;;22.01;50.04;99108.53;5018734;28;51361;-61
2021/10/03 06:44:13;;;;;;;;;0.50;0.50;;;;;22.01;50.35;99100.25;5018640;28;51721;-59
2021/10/03 06:46:39;;;;;;;;;1.00;1.00;;;;;22.00;50.20;99134.44;5018566;28;51163;-60
2021/10/03 06:49:05;;;;;;;;;1.00;1.00;;;;;22.00;50.42;99142.72;5018225;28;51091;-60
2021/10/03 06:51:31;;;;;;;;;1.50;0.75;;;;;21.99;50.62;99113.47;5018489;28;51231;-60
2021/10/03 06:53:56;;;;;;;;;1.50;0.75;;;;;21.98;49.91;99070.47;5021657;28;51721;-60
2021/10/03 06:56:22;;;;;;;;;1.00;1.00;;;;;21.98;50.29;99059.44;5037500;28;51178;-60
2021/10/03 06:58:48;;;;;;;;;1.50;1.00;;;;;21.98;50.26;99071.28;5025470;28;51105;-59
2021/10/03 07:01:13;;;;;;;;;2.00;1.00;;;;;21.99;50.58;99102.44;5031787;28;51276;-59
2021/10/03 07:03:38;;;;;;;;;2.00;1.25;;;;;21.98;50.15;99115.41;5029988;28;51746;-59
2021/10/03 07:06:04;;;;;;;;;1.00;0.25;;;;;21.98;50.86;99140.22;5036823;28;51225;-59
2021/10/03 07:08:29;;;;;;;;;0.75;0.75;;;;;21.98;50.91;99151.22;5028739;28;50993;-59
2021/10/03 07:10:55;;;;;;;;;0.00;0.00;;;;;21.96;51.03;99160.88;5027541;28;51049;-59
2021/10/03 07:13:20;;;;;;;;;0.00;0.00;;;;;21.95;51.09;99171.09;5035727;28;51099;-59
2021/10/03 07:15:45;;;;;;;;;0.00;0.00;;;;;21.94;51.50;99168.59;5023583;28;51500;-61
2021/10/03 07:18:12;;;;;;;;;0.00;0.00;;;;;21.94;51.18;99174.13;5026817;28;51165;-60
2021/10/03 07:20:37;;;;;;;;;2.00;1.00;;;;;21.93;51.74;99164.19;5025672;28;51336;-59
2021/10/03 07:23:03;;;;;;;;;0.00;0.00;;;;;21.92;51.01;99168.88;5030346;28;51858;-60
2021/10/03 07:25:28;;;;;;;;;0.00;0.00;;;;;21.92;51.03;99165.31;5032129;28;51193;-60
2021/10/03 07:27:53;;;;;;;;;0.00;0.00;;;;;21.93;51.35;99167.78;5038310;28;50969;-60
2021/10/03 07:30:19;;;;;;;;;0.00;0.00;;;;;21.94;50.98;99169.44;5036873;28;51362;-59
2021/10/03 07:32:44;;;;;;;;;1.00;1.00;;;;;21.93;51.51;99166.94;5017783;28;51286;-59
2021/10/03 07:35:11;;;;;;;;;1.00;0.00;;;;;21.93;50.97;99158.69;5024623;28;51183;-58
2021/10/03 07:37:36;;;;;;;;;0.00;0.00;;;;;21.93;51.13;99159.50;5036376;28;51147;-59
2021/10/03 07:40:04;;;;;;;;;0.50;0.50;;;;;21.94;51.25;99161.16;5024608;28;50975;-60
2021/10/03 07:42:30;;;;;;;;;0.00;0.00;;;;;21.95;51.33;99162.00;5034169;28;52162;-59
2021/10/03 07:44:55;;;;;;;;;0.00;0.00;;;;;21.95;51.45;99164.75;5031369;28;51195;-59
2021/10/03 07:47:21;;;;;;;;;0.50;0.00;;;;;21.96;51.37;99177.44;5026688;28;51054;-58
2021/10/03 07:49:46;;;;;;;;;1.25;1.25;;;;;21.96;51.86;99194.78;5034378;28;51293;-58
2021/10/03 07:52:12;;;;;;;;;2.00;2.00;;;;;21.97;51.95;99199.22;5024628;28;51186;-60
2021/10/03 07:54:37;;;;;;;;;1.00;0.00;;;;;21.97;51.30;99203.91;5039110;28;51139;-59
2021/10/03 07:57:03;;;;;;;;;2.75;1.75;;;;;21.98;51.47;99198.09;5026296;28;51069;-59
2021/10/03 07:59:28;;;;;;;;;1.00;1.00;;;;;21.99;52.04;99193.41;5023431;28;51190;-58
2021/10/03 08:01:53;;;;;;;;;1.00;1.00;;;;;22.00;51.61;99206.13;5026345;28;51126;-57
2021/10/03 08:04:19;;;;;;;;;0.00;0.00;;;;;22.00;51.67;99217.16;5038450;28;51000;-58
2021/10/03 08:06:44;;;;;;;;;0.75;0.50;;;;;22.00;51.90;99204.19;5016805;28;51163;-58
2021/10/03 08:09:10;;;;;;;;;1.00;1.00;;;;;22.01;52.20;99205.84;5028823;28;51735;-59
2021/10/03 08:11:35;;;;;;;;;0.50;0.50;;;;;22.03;52.32;99219.38;5035428;28;51849;-59
2021/10/03 08:14:00;;;;;;;;;2.00;2.00;;;;;22.02;52.11;99224.06;5033500;28;51081;-61
2021/10/03 08:16:26;;;;;;;;;2.75;1.75;;;;;22.04;52.14;99215.50;5023134;28;51208;-61
2021/10/03 08:18:51;;;;;;;;;1.00;1.00;;;;;22.05;52.43;99219.91;5028030;28;51291;-61
2021/10/03 08:21:18;;;;;;;;;0.75;0.00;;;;;22.06;52.51;99233.47;5022704;28;51508;-59
2021/10/03 08:23:44;;;;;;;;;1.25;0.00;;;;;22.07;52.19;99242.56;5024786;28;51412;-61
2021/10/03 08:26:10;;;;;;;;;2.75;0.25;;;;;22.07;52.45;99243.38;5032625;28;51203;-60
2021/10/03 08:28:35;;;;;;;;;2.00;1.00;;;;;22.09;52.23;99245.88;5031619;28;51156;-60
2021/10/03 08:31:01;;;;;;;;;3.50;2.00;;;;;22.08;52.02;99238.69;5029506;28;51875;-59
2021/10/03 08:33:26;;;;;;;;;2.00;1.00;;;;;22.08;51.86;99250.56;5028661;28;51250;-60
2021/10/03 08:35:51;;;;;;;;;3.25;1.75;;;;;22.09;52.37;99255.00;5034600;28;51014;-59
2021/10/03 08:38:17;;;;;;;;;3.75;2.00;;;;;22.09;52.13;99243.97;5033881;28;51319;-60
2021/10/03 08:40:44;;;;;;;;;2.25;2.00;;;;;22.09;52.55;99243.09;5018465;28;51965;-59
2021/10/03 08:43:10;;;;;;;;;1.75;1.75;;;;;22.11;52.13;99244.53;5034066;28;51757;-58
2021/10/03 08:45:44;;;;;;;;;3.25;3.00;;;;;22.10;52.55;99251.13;5034047;28;51207;-59
2021/10/03 08:48:12;;;;;;;;;2.25;2.25;;;;;22.12;52.09;99251.69;5031571;28;51352;-59
2021/10/03 08:50:39;;;;;;;;;4.00;4.00;;;;;22.13;52.17;99264.38;5028412;28;51873;-59
2021/10/03 08:53:04;;;;;;;;;5.50;5.50;;;;;22.13;52.50;99274.56;5032525;28;51233;-59
2021/10/03 08:55:30;;;;;;;;;3.50;3.50;;;;;22.12;52.87;99287.53;5028717;28;51215;-59
2021/10/03 08:57:55;;;;;;;;;3.25;3.25;;;;;22.10;52.49;99289.75;5034253;28;51339;-59
2021/10/03 09:00:22;;;;;;;;;5.50;4.75;;;;;22.13;52.50;99300.22;5024629;28;53805;-59
2021/10/03 09:03:04;;;;;;;;;8.50;5.00;;;;;22.14;52.91;99296.38;5029495;28;51787;-59
2021/10/03 09:05:38;;;;;;;;;7.00;7.00;;;;;22.14;52.50;99288.09;5024447;28;51774;-59
2021/10/03 09:08:17;;;;;;;;;8.75;6.00;;;;;22.15;52.98;99299.94;5034640;28;51250;-58
2021/10/03 09:10:52;;;;;;;;;7.25;6.00;;;;;22.16;52.79;99305.19;5030260;28;51175;-59
2021/10/03 09:13:19;;;;;;;;;9.00;6.25;;;;;22.16;52.66;99309.88;5025615;28;51019;-58
2021/10/03 09:15:46;;;;;;;;;9.50;8.00;;;;;22.17;53.17;99308.78;5026930;28;52378;-59
2021/10/03 09:18:15;;;;;;;;;13.50;9.25;;;;;22.18;53.21;99313.19;5023050;28;51251;-59
2021/10/03 09:20:42;;;;;;;;;8.50;7.25;;;;;22.18;52.84;99318.72;5015128;28;51826;-58
2021/10/03 09:23:11;;;;;;;;;9.00;9.00;;;;;22.19;53.13;99329.47;5016031;28;51078;-59
2021/10/03 09:25:49;;;;;;;;;11.75;8.50;;;;;22.21;53.48;99325.63;5035666;28;51578;-58
2021/10/03 09:28:16;;;;;;;;;8.25;8.25;;;;;22.21;53.47;99331.16;5015307;28;51204;-59
2021/10/03 09:30:58;;;;;;;;;10.00;9.00;;;;;22.21;53.13;99325.63;5015040;28;51920;-59
2021/10/03 09:33:24;;;;;;;;;8.50;6.50;;;;;22.21;53.55;99331.97;5017394;28;51023;-58
2021/10/03 09:36:00;;;;;;;;;9.00;7.25;;;;;22.21;52.98;99340.25;5034931;28;50985;-59
2021/10/03 09:38:27;;;;;;;;;11.25;9.25;;;;;22.21;53.14;99345.78;5034925;28;51327;-58
2021/10/03 09:41:04;;;;;;;;;10.25;8.25;;;;;22.21;53.62;99370.59;5034161;28;51356;-59
2021/10/03 09:43:43;;;;;;;;;7.25;6.25;;;;;22.21;53.04;99430.44;5035598;28;51626;-58
2021/10/03 09:46:27;;;;;;;;;8.00;7.75;;;;;22.21;53.64;99475.41;5027624;28;51313;-59
2021/10/03 09:48:52;;;;;;;;;7.00;6.00;;;;;22.19;53.73;99475.63;5015425;28;51403;-58
2021/10/03 09:51:17;;;;;;;;;8.25;7.75;;;;;22.21;53.21;99491.13;5030843;28;51299;-58
2021/10/03 09:53:45;;;;;;;;;6.25;6.25;;;;;22.20;53.05;99528.91;5034801;28;51045;-57
2021/10/03 09:56:11;;;;;;;;;6.75;6.50;;;;;22.20;53.36;99526.16;5014855;28;51067;-55
2021/10/03 09:58:38;;;;;;;;;7.25;6.25;;;;;22.20;53.27;99542.69;5022562;28;51054;-55
2021/10/03 10:01:04;;;;;;;;;6.75;6.75;;;;;22.22;52.95;99556.22;5035010;28;51052;-54
2021/10/03 10:03:31;;;;;;;;;6.50;4.00;;;;;22.23;53.32;99564.22;5034666;28;51032;-53
2021/10/03 10:05:57;;;;;;;;;7.00;4.75;;;;;22.23;52.79;99568.91;5034448;28;50941;-54
2021/10/03 10:08:22;;;;;;;;;8.75;7.25;;;;;22.24;52.66;99592.66;5028255;28;51381;-53
2021/10/03 10:10:48;;;;;;;;;6.00;5.25;;;;;22.22;52.78;99595.66;5024452;28;51592;-52
2021/10/03 10:13:17;;;;;;;;;6.00;6.00;;;;;22.24;52.91;99610.03;5034392;28;50981;-56
2021/10/03 10:15:43;;;;;;;;;4.50;4.25;;;;;22.23;52.81;99627.66;5034402;28;51113;-55
2021/10/03 10:18:23;;;;;;;;;4.00;4.00;;;;;22.24;52.76;99675.41;5034370;28;51372;-57
2021/10/03 10:20:49;;;;;;;;;5.25;3.50;;;;;22.23;52.34;99685.59;5029251;28;51684;-56
2021/10/03 10:23:18;;;;;;;;;5.25;4.75;;;;;22.24;52.35;99692.78;5021811;28;51459;-58
2021/10/03 10:25:44;;;;;;;;;6.75;4.00;;;;;22.25;52.34;99668.78;5022559;28;51203;-59
2021/10/03 10:28:29;;;;;;;;;5.75;5.75;;;;;22.25;52.04;99672.38;5037673;28;50964;-59
2021/10/03 10:31:03;;;;;;;;;2.50;2.25;;;;;22.27;52.13;99685.91;5026191;28;52211;-57
2021/10/03 10:33:51;;;;;;;;;6.25;4.50;;;;;22.26;51.82;99728.38;5026979;28;51231;-59
2021/10/03 10:36:29;;;;;;;;;3.25;3.25;;;;;22.27;52.01;99727.28;5029825;28;50969;-60
2021/10/03 10:39:06;;;;;;;;;4.00;4.00;;;;;22.27;52.65;99736.38;5027125;28;51307;-59
2021/10/03 10:41:36;;;;;;;;;3.25;3.00;;;;;22.28;52.63;99743.56;5030848;28;51131;-59
2021/10/03 10:44:27;;;;;;;;;6.25;5.75;;;;;22.27;52.72;99752.94;5026663;28;51202;-59
2021/10/03 10:46:58;;;;;;;;;3.75;3.75;;;;;22.27;53.15;99766.72;5024361;28;51542;-59
2021/10/03 10:49:23;;;;;;;;;7.00;6.00;;;;;22.27;52.97;99791.56;5017521;28;51137;-58
2021/10/03 10:52:18;;;;;;;;;6.00;6.00;;;;;22.27;52.88;99802.59;5024952;28;51038;-59
2021/10/03 10:55:01;;;;;;;;;5.00;4.25;;;;;22.28;52.32;99809.78;5030697;28;51032;-59
2021/10/03 10:57:27;;;;;;;;;6.25;6.25;;;;;22.28;52.77;99837.34;5028839;28;51226;-59
2021/10/03 11:00:16;;;;;;;;;7.50;7.00;;;;;22.29;53.11;99836.25;5030455;28;51336;-59
2021/10/03 11:02:48;;;;;;;;;7.25;5.75;;;;;22.30;52.67;99851.75;5028266;28;52845;-59
2021/10/03 11:05:34;;;;;;;;;6.50;3.75;;;;;22.31;52.64;99852.59;5024835;28;51247;-59
2021/10/03 11:08:14;;;;;;;;;8.25;5.75;;;;;22.33;52.21;99820.03;5025610;28;51116;-58
2021/10/03 11:12:01;;;;;;;;;5.25;4.00;;;;;22.33;52.46;99825.56;5078665;27;51315;-42
2021/10/03 11:14:28;;;;;;;;;4.25;3.00;;;;;22.35;52.48;99834.41;5058572;28;51251;-43
2021/10/03 11:16:59;;;;;;;;;5.75;4.25;;;;;22.35;51.97;99832.47;5048014;28;51104;-41
2021/10/03 11:19:38;;;;;;;;;6.25;4.00;;;;;22.38;52.04;99843.00;5062817;28;51950;-39
2021/10/03 11:22:24;;;;;;;;;2.25;2.25;;;;;22.41;51.81;99853.53;5045346;28;51164;-39
2021/10/03 11:24:56;;;;;;;;;4.00;4.00;;;;;22.44;51.55;99871.50;5031393;28;51180;-44
2021/10/03 11:27:26;;;;;;;;;2.75;2.75;;;;;22.46;51.49;99886.69;5048132;28;51275;-43
2021/10/03 11:29:55;;;;;;;;;3.75;3.75;;;;;22.48;51.91;99905.75;5038176;28;51699;-43
2021/10/03 11:32:34;;;;;;;;;3.25;3.25;;;;;22.50;51.85;99922.88;5045196;28;51024;-41
2021/10/03 11:35:02;;;;;;;;;3.75;3.75;;;;;22.53;51.93;99921.56;5039485;28;51157;-41
2021/10/03 11:37:32;;;;;;;;;6.00;3.75;;;;;22.54;51.51;99915.78;5046241;28;51055;-41